sensor_id;sensor_type;location;lat;lon;timestamp;pressure;altitude;pressure_sealevel;temperature;humidity
49979;BME280;35869;50.990;6.962;2023-03-18T00:04:09;100608.41;;;10.84;89.42
49979;BME280;35869;50.990;6.962;2023-03-18T00:09:09;100610.38;;;10.79;89.40
49979;BME280;35869;50.990;6.962;2023-03-18T00:14:10;100620.00;;;10.77;90.50
49979;BME280;35869;50.990;6.962;2023-03-18T00:19:10;100635.69;;;10.75;91.06
49979;BME280;35869;50.990;6.962;2023-03-18T00:24:11;100624.38;;;10.76;91.19
49979;BME280;35869;50.990;6.962;2023-03-18T00:29:11;100624.44;;;10.75;90.42
49979;BME280;35869;50.990;6.962;2023-03-18T00:34:11;100629.47;;;10.78;90.37
49979;BME280;35869;50.990;6.962;2023-03-18T00:39:11;100608.69;;;10.78;90.59
49979;BME280;35869;50.990;6.962;2023-03-18T00:44:11;100606.25;;;10.75;92.58
49979;BME280;35869;50.990;6.962;2023-03-18T00:49:12;100611.25;;;10.79;90.95
49979;BME280;35869;50.990;6.962;2023-03-18T00:54:13;100631.44;;;10.73;92.52
49979;BME280;35869;50.990;6.962;2023-03-18T00:59:13;100625.97;;;10.79;90.85
49979;BME280;35869;50.990;6.962;2023-03-18T01:04:14;100619.88;;;10.80;90.34
49979;BME280;35869;50.990;6.962;2023-03-18T01:09:14;100618.41;;;10.74;91.05
49979;BME280;35869;50.990;6.962;2023-03-18T01:14:14;100627.22;;;10.89;93.97
49979;BME280;35869;50.990;6.962;2023-03-18T01:19:14;100616.34;;;10.81;92.07
49979;BME280;35869;50.990;6.962;2023-03-18T01:24:15;100609.41;;;10.81;92.22
49979;BME280;35869;50.990;6.962;2023-03-18T01:29:15;100626.97;;;10.76;90.79
49979;BME280;35869;50.990;6.962;2023-03-18T01:34:16;100622.47;;;10.80;91.63
49979;BME280;35869;50.990;6.962;2023-03-18T01:39:16;100627.72;;;10.78;90.90
49979;BME280;35869;50.990;6.962;2023-03-18T01:44:22;100620.75;;;10.79;92.36
49979;BME280;35869;50.990;6.962;2023-03-18T01:49:47;100604.50;;;10.75;92.84
49979;BME280;35869;50.990;6.962;2023-03-18T01:54:54;100604.41;;;10.77;92.11
49979;BME280;35869;50.990;6.962;2023-03-18T01:59:57;100594.84;;;10.77;92.50
49979;BME280;35869;50.990;6.962;2023-03-18T02:05:01;100592.25;;;10.77;92.87
49979;BME280;35869;50.990;6.962;2023-03-18T02:10:07;100604.19;;;10.81;94.05
49979;BME280;35869;50.990;6.962;2023-03-18T02:15:17;100599.84;;;10.82;93.45
49979;BME280;35869;50.990;6.962;2023-03-18T02:25:44;100598.44;;;10.75;93.77
49979;BME280;35869;50.990;6.962;2023-03-18T02:30:49;100586.38;;;10.74;93.48
49979;BME280;35869;50.990;6.962;2023-03-18T02:35:54;100585.03;;;10.65;93.95
49979;BME280;35869;50.990;6.962;2023-03-18T02:40:55;100585.09;;;10.63;93.51
49979;BME280;35869;50.990;6.962;2023-03-18T02:46:20;100596.72;;;10.56;93.65
49979;BME280;35869;50.990;6.962;2023-03-18T02:51:25;100605.38;;;10.55;93.37
49979;BME280;35869;50.990;6.962;2023-03-18T02:56:25;100606.47;;;10.51;94.92
49979;BME280;35869;50.990;6.962;2023-03-18T03:01:26;100611.09;;;10.45;94.47
49979;BME280;35869;50.990;6.962;2023-03-18T03:06:26;100620.03;;;10.39;92.38
49979;BME280;35869;50.990;6.962;2023-03-18T03:11:27;100628.09;;;10.33;94.65
49979;BME280;35869;50.990;6.962;2023-03-18T03:16:27;100627.53;;;10.26;94.64
49979;BME280;35869;50.990;6.962;2023-03-18T03:21:28;100633.56;;;10.27;93.67
49979;BME280;35869;50.990;6.962;2023-03-18T03:26:28;100629.50;;;10.20;92.41
49979;BME280;35869;50.990;6.962;2023-03-18T03:31:29;100635.03;;;10.12;94.33
49979;BME280;35869;50.990;6.962;2023-03-18T03:36:29;100637.78;;;10.09;93.43
49979;BME280;35869;50.990;6.962;2023-03-18T03:41:29;100638.81;;;10.05;92.82
49979;BME280;35869;50.990;6.962;2023-03-18T03:46:30;100645.09;;;9.99;92.65
49979;BME280;35869;50.990;6.962;2023-03-18T03:51:30;100646.94;;;9.97;94.04
49979;BME280;35869;50.990;6.962;2023-03-18T03:56:30;100653.16;;;9.93;92.04
49979;BME280;35869;50.990;6.962;2023-03-18T04:01:30;100656.03;;;9.87;92.96
49979;BME280;35869;50.990;6.962;2023-03-18T04:06:30;100657.03;;;9.83;93.43
49979;BME280;35869;50.990;6.962;2023-03-18T04:11:31;100665.94;;;9.77;93.32
49979;BME280;35869;50.990;6.962;2023-03-18T04:16:31;100673.91;;;9.73;92.31
49979;BME280;35869;50.990;6.962;2023-03-18T04:21:32;100683.03;;;9.61;92.94
49979;BME280;35869;50.990;6.962;2023-03-18T04:26:32;100684.13;;;9.55;92.27
49979;BME280;35869;50.990;6.962;2023-03-18T04:31:32;100696.50;;;9.49;93.39
49979;BME280;35869;50.990;6.962;2023-03-18T04:36:33;100702.91;;;9.40;93.04
49979;BME280;35869;50.990;6.962;2023-03-18T04:41:33;100705.59;;;9.39;92.96
49979;BME280;35869;50.990;6.962;2023-03-18T04:46:33;100708.47;;;9.31;92.98
49979;BME280;35869;50.990;6.962;2023-03-18T04:51:33;100708.84;;;9.22;92.55
49979;BME280;35869;50.990;6.962;2023-03-18T04:56:34;100714.13;;;9.19;92.54
49979;BME280;35869;50.990;6.962;2023-03-18T05:01:34;100717.13;;;9.08;92.99
49979;BME280;35869;50.990;6.962;2023-03-18T05:06:34;100708.56;;;9.06;91.41
49979;BME280;35869;50.990;6.962;2023-03-18T05:11:35;100707.84;;;9.02;92.53
49979;BME280;35869;50.990;6.962;2023-03-18T05:16:35;100710.72;;;8.95;92.88
49979;BME280;35869;50.990;6.962;2023-03-18T05:21:36;100708.28;;;8.90;92.20
49979;BME280;35869;50.990;6.962;2023-03-18T05:26:37;100711.13;;;8.84;93.03
49979;BME280;35869;50.990;6.962;2023-03-18T05:31:37;100715.41;;;8.85;91.53
49979;BME280;35869;50.990;6.962;2023-03-18T05:36:37;100712.81;;;8.85;91.22
49979;BME280;35869;50.990;6.962;2023-03-18T05:41:37;100716.38;;;8.82;92.26
49979;BME280;35869;50.990;6.962;2023-03-18T05:46:37;100726.06;;;8.77;91.16
49979;BME280;35869;50.990;6.962;2023-03-18T05:51:38;100728.09;;;8.69;92.38
49979;BME280;35869;50.990;6.962;2023-03-18T05:56:38;100732.59;;;8.64;92.53
49979;BME280;35869;50.990;6.962;2023-03-18T06:01:39;100729.31;;;8.59;92.46
49979;BME280;35869;50.990;6.962;2023-03-18T06:06:39;100744.28;;;8.51;93.05
49979;BME280;35869;50.990;6.962;2023-03-18T06:11:39;100750.34;;;8.50;93.38
49979;BME280;35869;50.990;6.962;2023-03-18T06:16:40;100747.94;;;8.45;92.39
49979;BME280;35869;50.990;6.962;2023-03-18T06:21:40;100747.25;;;8.40;91.82
49979;BME280;35869;50.990;6.962;2023-03-18T06:26:41;100747.31;;;8.39;91.15
49979;BME280;35869;50.990;6.962;2023-03-18T06:31:41;100750.03;;;8.34;91.61
49979;BME280;35869;50.990;6.962;2023-03-18T06:36:41;100761.31;;;8.32;90.23
49979;BME280;35869;50.990;6.962;2023-03-18T06:41:41;100763.88;;;8.33;90.60
49979;BME280;35869;50.990;6.962;2023-03-18T06:46:42;100763.88;;;8.33;90.77
49979;BME280;35869;50.990;6.962;2023-03-18T06:51:42;100761.00;;;8.42;93.11
49979;BME280;35869;50.990;6.962;2023-03-18T06:56:42;100758.53;;;8.39;94.01
49979;BME280;35869;50.990;6.962;2023-03-18T07:01:43;100767.69;;;8.48;94.27
49979;BME280;35869;50.990;6.962;2023-03-18T07:06:43;100761.84;;;8.68;96.53
49979;BME280;35869;50.990;6.962;2023-03-18T07:11:44;100773.03;;;8.68;95.07
49979;BME280;35869;50.990;6.962;2023-03-18T07:16:44;100773.44;;;8.81;98.58
49979;BME280;35869;50.990;6.962;2023-03-18T07:21:44;100771.63;;;8.83;94.80
49979;BME280;35869;50.990;6.962;2023-03-18T07:26:44;100783.81;;;9.04;97.62
49979;BME280;35869;50.990;6.962;2023-03-18T07:31:45;100790.13;;;8.97;97.53
49979;BME280;35869;50.990;6.962;2023-03-18T07:36:46;100779.75;;;9.21;97.35
49979;BME280;35869;50.990;6.962;2023-03-18T07:41:46;100790.50;;;9.33;98.12
49979;BME280;35869;50.990;6.962;2023-03-18T07:46:46;100797.19;;;9.63;97.76
49979;BME280;35869;50.990;6.962;2023-03-18T07:51:46;100796.69;;;9.75;98.73
49979;BME280;35869;50.990;6.962;2023-03-18T07:56:46;100809.88;;;9.91;97.43
49979;BME280;35869;50.990;6.962;2023-03-18T08:01:47;100817.06;;;10.06;96.85
49979;BME280;35869;50.990;6.962;2023-03-18T08:06:47;100820.84;;;10.19;95.75
49979;BME280;35869;50.990;6.962;2023-03-18T08:11:47;100825.16;;;10.20;94.87
49979;BME280;35869;50.990;6.962;2023-03-18T08:16:47;100818.63;;;10.52;97.13
49979;BME280;35869;50.990;6.962;2023-03-18T08:21:48;100829.16;;;10.70;97.09
49979;BME280;35869;50.990;6.962;2023-03-18T08:26:48;100827.91;;;10.99;96.79
49979;BME280;35869;50.990;6.962;2023-03-18T08:31:48;100825.88;;;11.05;96.89
49979;BME280;35869;50.990;6.962;2023-03-18T08:36:48;100828.69;;;11.19;95.07
49979;BME280;35869;50.990;6.962;2023-03-18T08:41:49;100828.47;;;11.43;94.65
49979;BME280;35869;50.990;6.962;2023-03-18T08:46:49;100828.25;;;11.66;93.77
49979;BME280;35869;50.990;6.962;2023-03-18T08:51:50;100835.38;;;11.63;95.61
49979;BME280;35869;50.990;6.962;2023-03-18T08:56:50;100843.09;;;11.64;92.56
49979;BME280;35869;50.990;6.962;2023-03-18T09:01:50;100830.28;;;11.97;93.49
49979;BME280;35869;50.990;6.962;2023-03-18T09:06:50;100831.56;;;11.89;92.73
49979;BME280;35869;50.990;6.962;2023-03-18T09:11:50;100826.31;;;12.08;93.57
49979;BME280;35869;50.990;6.962;2023-03-18T09:16:51;100832.38;;;12.43;91.24
49979;BME280;35869;50.990;6.962;2023-03-18T09:21:51;100825.25;;;12.64;90.58
49979;BME280;35869;50.990;6.962;2023-03-18T09:26:51;100823.69;;;12.60;90.06
49979;BME280;35869;50.990;6.962;2023-03-18T09:31:52;100817.97;;;12.36;91.21
49979;BME280;35869;50.990;6.962;2023-03-18T09:36:52;100829.31;;;12.69;90.19
49979;BME280;35869;50.990;6.962;2023-03-18T09:47:27;100826.94;;;12.65;90.94
49979;BME280;35869;50.990;6.962;2023-03-18T09:52:37;100825.59;;;12.91;89.01
49979;BME280;35869;50.990;6.962;2023-03-18T09:57:43;100827.28;;;12.92;88.84
49979;BME280;35869;50.990;6.962;2023-03-18T10:02:47;100822.19;;;12.89;90.24
49979;BME280;35869;50.990;6.962;2023-03-18T10:07:52;100825.91;;;12.85;91.38
49979;BME280;35869;50.990;6.962;2023-03-18T10:13:21;100830.75;;;13.41;87.96
49979;BME280;35869;50.990;6.962;2023-03-18T10:18:28;100825.53;;;13.25;89.32
49979;BME280;35869;50.990;6.962;2023-03-18T10:23:45;100826.19;;;13.92;85.92
49979;BME280;35869;50.990;6.962;2023-03-18T10:34:18;100825.03;;;14.12;85.53
49979;BME280;35869;50.990;6.962;2023-03-18T10:39:22;100819.06;;;14.10;87.35
49979;BME280;35869;50.990;6.962;2023-03-18T10:49:28;100817.00;;;15.04;81.67
49979;BME280;35869;50.990;6.962;2023-03-18T10:54:40;100821.09;;;14.51;85.02
49979;BME280;35869;50.990;6.962;2023-03-18T10:59:42;100813.66;;;14.73;86.00
49979;BME280;35869;50.990;6.962;2023-03-18T11:04:49;100804.84;;;14.74;85.61
49979;BME280;35869;50.990;6.962;2023-03-18T11:09:51;100809.06;;;14.77;85.33
49979;BME280;35869;50.990;6.962;2023-03-18T11:14:52;100809.72;;;15.09;84.74
49979;BME280;35869;50.990;6.962;2023-03-18T11:20:01;100808.13;;;15.62;82.43
49979;BME280;35869;50.990;6.962;2023-03-18T11:25:03;100815.44;;;15.98;77.99
49979;BME280;35869;50.990;6.962;2023-03-18T11:35:18;100821.41;;;15.59;82.64
49979;BME280;35869;50.990;6.962;2023-03-18T11:40:23;100811.69;;;15.75;82.39
49979;BME280;35869;50.990;6.962;2023-03-18T11:45:40;100811.88;;;16.51;76.40
49979;BME280;35869;50.990;6.962;2023-03-18T11:56:32;100805.09;;;16.74;76.79
49979;BME280;35869;50.990;6.962;2023-03-18T12:11:59;100795.91;;;17.18;70.69
49979;BME280;35869;50.990;6.962;2023-03-18T12:37:59;100778.84;;;17.61;74.70
49979;BME280;35869;50.990;6.962;2023-03-18T12:48:51;100762.31;;;17.95;67.87
49979;BME280;35869;50.990;6.962;2023-03-18T12:53:56;100752.50;;;17.97;68.95
49979;BME280;35869;50.990;6.962;2023-03-18T12:59:05;100744.66;;;18.08;67.85
49979;BME280;35869;50.990;6.962;2023-03-18T13:04:12;100740.81;;;18.01;67.05
49979;BME280;35869;50.990;6.962;2023-03-18T13:09:33;100734.69;;;17.90;71.39
49979;BME280;35869;50.990;6.962;2023-03-18T13:14:59;100726.44;;;17.94;69.02
49979;BME280;35869;50.990;6.962;2023-03-18T13:20:05;100744.78;;;17.72;78.62
49979;BME280;35869;50.990;6.962;2023-03-18T13:25:20;100742.72;;;17.51;79.02
49979;BME280;35869;50.990;6.962;2023-03-18T13:30:45;100751.75;;;17.60;75.86
49979;BME280;35869;50.990;6.962;2023-03-18T13:41:16;100743.53;;;16.91;77.21
49979;BME280;35869;50.990;6.962;2023-03-18T13:46:25;100739.50;;;17.35;74.50
49979;BME280;35869;50.990;6.962;2023-03-18T14:01:48;100752.13;;;16.93;78.42
49979;BME280;35869;50.990;6.962;2023-03-18T14:06:54;100743.03;;;16.86;78.43
49979;BME280;35869;50.990;6.962;2023-03-18T14:12:21;100741.13;;;16.63;81.02
49979;BME280;35869;50.990;6.962;2023-03-18T14:22:38;100747.34;;;16.49;79.10
49979;BME280;35869;50.990;6.962;2023-03-18T14:49:28;100732.38;;;15.98;80.81
49979;BME280;35869;50.990;6.962;2023-03-18T14:54:37;100722.94;;;15.96;77.72
49979;BME280;35869;50.990;6.962;2023-03-18T14:59:40;100724.09;;;15.92;77.82
49979;BME280;35869;50.990;6.962;2023-03-18T15:04:40;100719.09;;;16.02;78.15
49979;BME280;35869;50.990;6.962;2023-03-18T15:09:49;100721.91;;;15.98;77.98
49979;BME280;35869;50.990;6.962;2023-03-18T15:14:50;100718.97;;;16.03;78.48
49979;BME280;35869;50.990;6.962;2023-03-18T15:19:54;100724.22;;;16.03;78.41
49979;BME280;35869;50.990;6.962;2023-03-18T15:25:00;100716.34;;;15.90;77.22
49979;BME280;35869;50.990;6.962;2023-03-18T15:30:03;100710.38;;;16.01;77.08
49979;BME280;35869;50.990;6.962;2023-03-18T15:40:33;100713.91;;;16.00;76.26
49979;BME280;35869;50.990;6.962;2023-03-18T15:45:34;100706.81;;;16.02;76.14
49979;BME280;35869;50.990;6.962;2023-03-18T15:50:35;100713.50;;;16.06;75.56
49979;BME280;35869;50.990;6.962;2023-03-18T16:00:46;100710.81;;;16.08;77.00
49979;BME280;35869;50.990;6.962;2023-03-18T16:05:47;100708.25;;;16.06;76.55
49979;BME280;35869;50.990;6.962;2023-03-18T16:10:53;100703.13;;;16.05;77.63
49979;BME280;35869;50.990;6.962;2023-03-18T16:15:54;100703.97;;;16.05;78.03
49979;BME280;35869;50.990;6.962;2023-03-18T16:20:54;100711.81;;;15.92;81.33
49979;BME280;35869;50.990;6.962;2023-03-18T16:25:55;100721.84;;;15.73;81.01
49979;BME280;35869;50.990;6.962;2023-03-18T16:30:55;100719.97;;;15.75;76.89
49979;BME280;35869;50.990;6.962;2023-03-18T16:35:57;100720.84;;;15.34;77.99
49979;BME280;35869;50.990;6.962;2023-03-18T16:40:59;100717.09;;;15.38;76.78
49979;BME280;35869;50.990;6.962;2023-03-18T16:46:00;100734.91;;;15.46;74.32
49979;BME280;35869;50.990;6.962;2023-03-18T16:51:01;100729.06;;;15.42;75.59
49979;BME280;35869;50.990;6.962;2023-03-18T16:56:17;100730.75;;;15.02;77.44
49979;BME280;35869;50.990;6.962;2023-03-18T17:01:18;100733.44;;;15.15;73.16
49979;BME280;35869;50.990;6.962;2023-03-18T17:06:18;100733.91;;;15.07;71.57
49979;BME280;35869;50.990;6.962;2023-03-18T17:11:18;100741.50;;;14.98;72.94
49979;BME280;35869;50.990;6.962;2023-03-18T17:16:18;100751.69;;;14.88;74.52
49979;BME280;35869;50.990;6.962;2023-03-18T17:21:19;100757.56;;;14.77;73.21
49979;BME280;35869;50.990;6.962;2023-03-18T17:26:19;100758.31;;;14.65;75.49
49979;BME280;35869;50.990;6.962;2023-03-18T17:31:19;100762.81;;;14.49;77.02
49979;BME280;35869;50.990;6.962;2023-03-18T17:36:19;100755.38;;;14.41;76.62
49979;BME280;35869;50.990;6.962;2023-03-18T17:41:20;100763.84;;;14.30;76.58
49979;BME280;35869;50.990;6.962;2023-03-18T17:46:20;100761.22;;;14.16;77.93
49979;BME280;35869;50.990;6.962;2023-03-18T17:51:21;100774.91;;;14.05;76.68
49979;BME280;35869;50.990;6.962;2023-03-18T17:56:23;100770.50;;;14.06;77.97
49979;BME280;35869;50.990;6.962;2023-03-18T18:01:25;100779.84;;;13.96;78.36
49979;BME280;35869;50.990;6.962;2023-03-18T18:06:27;100781.63;;;13.79;77.97
49979;BME280;35869;50.990;6.962;2023-03-18T18:11:30;100789.63;;;13.76;78.35
49979;BME280;35869;50.990;6.962;2023-03-18T18:16:31;100790.56;;;13.59;78.29
49979;BME280;35869;50.990;6.962;2023-03-18T18:21:31;100784.09;;;13.51;79.45
49979;BME280;35869;50.990;6.962;2023-03-18T18:26:31;100790.84;;;13.39;80.71
49979;BME280;35869;50.990;6.962;2023-03-18T18:31:31;100795.22;;;13.39;82.41
49979;BME280;35869;50.990;6.962;2023-03-18T18:36:32;100801.53;;;13.34;80.63
49979;BME280;35869;50.990;6.962;2023-03-18T18:41:32;100806.63;;;13.20;80.99
49979;BME280;35869;50.990;6.962;2023-03-18T18:46:32;100806.44;;;13.07;79.38
49979;BME280;35869;50.990;6.962;2023-03-18T18:51:32;100808.88;;;13.11;79.13
49979;BME280;35869;50.990;6.962;2023-03-18T18:56:34;100809.22;;;13.04;77.85
49979;BME280;35869;50.990;6.962;2023-03-18T19:01:34;100809.00;;;12.92;78.69
49979;BME280;35869;50.990;6.962;2023-03-18T19:06:34;100803.81;;;12.92;78.71
49979;BME280;35869;50.990;6.962;2023-03-18T19:11:35;100806.41;;;12.92;77.63
49979;BME280;35869;50.990;6.962;2023-03-18T19:16:35;100815.47;;;12.85;77.96
49979;BME280;35869;50.990;6.962;2023-03-18T19:21:35;100815.81;;;12.78;79.50
49979;BME280;35869;50.990;6.962;2023-03-18T19:26:35;100814.25;;;12.74;78.71
49979;BME280;35869;50.990;6.962;2023-03-18T19:31:35;100836.13;;;12.72;78.72
49979;BME280;35869;50.990;6.962;2023-03-18T19:36:38;100843.88;;;12.73;77.49
49979;BME280;35869;50.990;6.962;2023-03-18T19:41:39;100835.66;;;12.64;78.93
49979;BME280;35869;50.990;6.962;2023-03-18T19:46:39;100840.38;;;12.57;78.47
49979;BME280;35869;50.990;6.962;2023-03-18T19:51:39;100839.00;;;12.50;79.46
49979;BME280;35869;50.990;6.962;2023-03-18T19:56:40;100842.44;;;12.50;78.43
49979;BME280;35869;50.990;6.962;2023-03-18T20:01:40;100842.34;;;12.52;77.41
49979;BME280;35869;50.990;6.962;2023-03-18T20:06:40;100849.47;;;12.48;78.24
49979;BME280;35869;50.990;6.962;2023-03-18T20:11:40;100855.00;;;12.42;78.71
49979;BME280;35869;50.990;6.962;2023-03-18T20:16:41;100853.63;;;12.35;80.30
49979;BME280;35869;50.990;6.962;2023-03-18T20:21:42;100858.59;;;12.40;79.87
49979;BME280;35869;50.990;6.962;2023-03-18T20:26:42;100862.75;;;12.44;78.44
49979;BME280;35869;50.990;6.962;2023-03-18T20:31:43;100865.59;;;12.39;78.46
49979;BME280;35869;50.990;6.962;2023-03-18T20:36:43;100870.88;;;12.38;78.08
49979;BME280;35869;50.990;6.962;2023-03-18T20:41:43;100867.66;;;12.33;79.13
49979;BME280;35869;50.990;6.962;2023-03-18T20:46:44;100866.81;;;12.32;78.04
49979;BME280;35869;50.990;6.962;2023-03-18T20:51:44;100871.19;;;12.32;78.48
49979;BME280;35869;50.990;6.962;2023-03-18T20:56:45;100870.56;;;12.26;79.33
49979;BME280;35869;50.990;6.962;2023-03-18T21:01:45;100878.44;;;12.25;78.88
49979;BME280;35869;50.990;6.962;2023-03-18T21:06:45;100872.47;;;12.23;80.01
49979;BME280;35869;50.990;6.962;2023-03-18T21:11:46;100871.72;;;12.21;79.74
49979;BME280;35869;50.990;6.962;2023-03-18T21:16:46;100869.16;;;12.19;78.45
49979;BME280;35869;50.990;6.962;2023-03-18T21:21:47;100869.31;;;12.16;80.34
49979;BME280;35869;50.990;6.962;2023-03-18T21:26:47;100865.03;;;12.15;79.99
49979;BME280;35869;50.990;6.962;2023-03-18T21:31:47;100866.72;;;12.16;79.22
49979;BME280;35869;50.990;6.962;2023-03-18T21:36:47;100864.31;;;12.12;78.88
49979;BME280;35869;50.990;6.962;2023-03-18T21:41:47;100855.53;;;12.14;79.73
49979;BME280;35869;50.990;6.962;2023-03-18T21:46:48;100863.34;;;12.14;79.21
49979;BME280;35869;50.990;6.962;2023-03-18T21:51:48;100861.94;;;12.07;81.30
49979;BME280;35869;50.990;6.962;2023-03-18T21:56:48;100861.34;;;12.02;81.62
49979;BME280;35869;50.990;6.962;2023-03-18T22:01:48;100858.72;;;12.02;81.62
49979;BME280;35869;50.990;6.962;2023-03-18T22:06:48;100859.69;;;11.99;81.94
49979;BME280;35869;50.990;6.962;2023-03-18T22:11:49;100863.44;;;11.94;83.01
49979;BME280;35869;50.990;6.962;2023-03-18T22:16:49;100856.69;;;11.90;83.50
49979;BME280;35869;50.990;6.962;2023-03-18T22:21:49;100853.31;;;11.88;83.64
49979;BME280;35869;50.990;6.962;2023-03-18T22:26:49;100856.97;;;11.84;82.99
49979;BME280;35869;50.990;6.962;2023-03-18T22:31:50;100850.22;;;11.80;83.39
49979;BME280;35869;50.990;6.962;2023-03-18T22:36:50;100855.53;;;11.77;83.16
49979;BME280;35869;50.990;6.962;2023-03-18T22:41:50;100852.19;;;11.74;83.01
49979;BME280;35869;50.990;6.962;2023-03-18T22:46:50;100867.00;;;11.72;82.47
49979;BME280;35869;50.990;6.962;2023-03-18T22:51:51;100871.38;;;11.72;81.96
49979;BME280;35869;50.990;6.962;2023-03-18T22:56:51;100873.13;;;11.71;82.28
49979;BME280;35869;50.990;6.962;2023-03-18T23:01:51;100877.66;;;11.68;82.51
49979;BME280;35869;50.990;6.962;2023-03-18T23:06:51;100898.53;;;11.66;84.10
49979;BME280;35869;50.990;6.962;2023-03-18T23:11:51;100890.88;;;11.63;83.64
49979;BME280;35869;50.990;6.962;2023-03-18T23:16:52;100889.06;;;11.65;82.96
49979;BME280;35869;50.990;6.962;2023-03-18T23:21:52;100886.66;;;11.61;83.06
49979;BME280;35869;50.990;6.962;2023-03-18T23:26:52;100880.84;;;11.56;83.25
49979;BME280;35869;50.990;6.962;2023-03-18T23:31:52;100875.75;;;11.53;84.29
49979;BME280;35869;50.990;6.962;2023-03-18T23:36:53;100865.41;;;11.51;85.46
49979;BME280;35869;50.990;6.962;2023-03-18T23:41:53;100870.91;;;11.45;85.74
49979;BME280;35869;50.990;6.962;2023-03-18T23:46:53;100884.97;;;11.41;85.59
49979;BME280;35869;50.990;6.962;2023-03-18T23:51:53;100868.72;;;11.36;86.27
49979;BME280;35869;50.990;6.962;2023-03-18T23:56:54;100868.22;;;11.28;85.92
